WetterOnline ( https://www.wetteronline.at )

Wetter aktuell Dresden

Aktuelles Wetter: Dresden/Klotzsche (232m)

6-stündlich | Neueste Meldungen
Ortszeit Temperatur Wetter
Di, 17.09. 14:00 14.3° C bewölkt
Di, 17.09. 8:00 11.0° C bewölkt
Di, 17.09. 2:00 11.4° C bewölkt
Mo, 16.09. 20:00 11.5° C Sprühregen
Mo, 16.09. 14:00 15.3° C bedeckt
Mo, 16.09. 8:00 13.7° C bedeckt
Mo, 16.09. 2:00 16.4° C leicht bewölkt
So, 15.09. 20:00 20.6° C leicht bewölkt
Ortszeit Temperatur Wetter
Di, 17.09. 16:20 16° C leicht bewölkt
Di, 17.09. 16:00 15.2° C bewölkt
Di, 17.09. 15:50 15.2° C bedeckt
Di, 17.09. 15:40 15.1° C bewölkt
Di, 17.09. 15:30 15.6° C bewölkt
Di, 17.09. 15:20 15.6° C bewölkt
Di, 17.09. 15:00 15.7° C wolkig
Di, 17.09. 14:30 14.5° C bewölkt
Di, 17.09. 14:00 14.3° C bewölkt
Di, 17.09. 13:30 14.6° C bewölkt
Di, 17.09. 13:00 13.6° C wolkig
Ortszeit Relative Feuchte Sichtweite
Di, 17.09. 14:00 55% 45 km
Di, 17.09. 8:00 89% 7 km
Di, 17.09. 2:00 92% 8 km
Mo, 16.09. 20:00 95% 3.2 km
Mo, 16.09. 14:00 67% 25 km
Mo, 16.09. 8:00 78% 30 km
Mo, 16.09. 2:00 46% 60 km
So, 15.09. 20:00 42% 65 km
Ortszeit Relative Feuchte Sichtweite
Di, 17.09. 16:20 51% >10 km
Di, 17.09. 16:00 52% 50 km
Di, 17.09. 15:50 52% -
Di, 17.09. 15:40 52% -
Di, 17.09. 15:30 51% -
Di, 17.09. 15:20 51% -
Di, 17.09. 15:00 53% 50 km
Di, 17.09. 14:30 57% -
Di, 17.09. 14:00 55% 45 km
Di, 17.09. 13:30 56% -
Di, 17.09. 13:00 63% 40 km
Ortszeit Niederschlagsmenge Niederschlagsart
Di, 17.09. 14:00 0.0 l/m2 in 6 Std. -
Di, 17.09. 8:00 0.3 l/m2 in 12 Std. -
Di, 17.09. 2:00 0.3 l/m2 in 6 Std. Sprühregen
Mo, 16.09. 20:00 2 l/m2 in 12 Std. Regen
Mo, 16.09. 14:00 0.1 l/m2 in 6 Std. Regen
Mo, 16.09. 8:00 0.0 l/m2 in 12 Std. -
Mo, 16.09. 2:00 0.0 l/m2 in 6 Std. -
So, 15.09. 20:00 0.0 l/m2 in 12 Std. -
Ortszeit Niederschlagsmenge Niederschlagsart
Di, 17.09. 16:20 keine Meldung -
Di, 17.09. 16:00 0.0 l/m2 in 1 Std. -
Di, 17.09. 15:50 keine Meldung -
Di, 17.09. 15:40 keine Meldung -
Di, 17.09. 15:30 0.0 l/m2 in 1 Std. -
Di, 17.09. 15:20 keine Meldung -
Di, 17.09. 15:00 0.0 l/m2 in 1 Std. -
Di, 17.09. 14:30 0.0 l/m2 in 1 Std. -
Di, 17.09. 14:00 0.0 l/m2 in 1 Std. -
Di, 17.09. 13:30 0.0 l/m2 in 1 Std. -
Di, 17.09. 13:00 0.0 l/m2 in 1 Std. -
Ortszeit Stärke Spitze Richtung
km/h Bft. km/h Grad Sektor
Di, 17.09. 14:00 29 5 50 260° W
Di, 17.09. 8:00 13 3 26 270° W
Di, 17.09. 2:00 9 2 15 270° W
Mo, 16.09. 20:00 9 2 20 330° NW
Mo, 16.09. 14:00 11 2 25 290° W
Mo, 16.09. 8:00 4 1 22 320° NW
Mo, 16.09. 2:00 9 2 19 270° W
So, 15.09. 20:00 11 2 40 280° W
Ortszeit Stärke Spitze Richtung
km/h Bft. km/h Grad Sektor
Di, 17.09. 16:20 26 4 - 280° W
Di, 17.09. 16:00 31 5 50 270° W
Di, 17.09. 15:50 31 5 - 270° W
Di, 17.09. 15:40 30 5 - 260° W
Di, 17.09. 15:30 28 4 48 260° W
Di, 17.09. 15:20 28 4 - 260° W
Di, 17.09. 15:00 31 5 56 270° W
Di, 17.09. 14:30 33 5 56 260° W
Di, 17.09. 14:00 29 5 50 260° W
Di, 17.09. 13:30 29 5 47 290° W
Di, 17.09. 13:00 22 4 43 290° W
Ortszeit Untergrenze Bedeckung Gattung
total tief tief mittel hoch
Di, 17.09. 14:00 1320 m 7/8 7/8 Cu - -
Di, 17.09. 8:00 360 m 7/8 7/8 Sc - -
Di, 17.09. 2:00 120 m 7/8 7/8 Cu - -
Mo, 16.09. 20:00 60 m 8/8 6/8 St Ns -
Mo, 16.09. 14:00 630 m 8/8 7/8 Sc - -
Mo, 16.09. 8:00 390 m 8/8 7/8 Cu - -
Mo, 16.09. 2:00 4500 m 4/8 2/8 - Ac Ci
So, 15.09. 20:00 7500 m 6/8 0/8 - - Cs
Ortszeit Bedeckungsgrad in Achtel und Wolkenuntergrenze
Di, 17.09. 16:20 3-4(1350m)
Di, 17.09. 16:00 3(1350m) 6(1800m)
Di, 17.09. 15:50 5(1260m) 7(1500m) 8(1800m)
Di, 17.09. 15:40 3(1260m) 4(1500m) 7(1800m)
Di, 17.09. 15:30 1(1230m) 7(1800m) 7(1800m)
Di, 17.09. 15:20 1(1230m) 7(1800m)
Di, 17.09. 15:00 2(1080m) 5(1800m) 5(1800m)
Di, 17.09. 14:30 2(1020m) 7(1500m)
Di, 17.09. 14:00 2(1320m) 6(1500m)
Di, 17.09. 13:30 1(990m) 7(1500m) 8(1500m)
Di, 17.09. 13:00 4(1020m) 4(1500m) 7(1500m)
Ortszeit Luftdruck NN (hPa) Tendenz (hPa in 3 Std.)
Di, 17.09. 14:00 1016 - 1,3
Di, 17.09. 8:00 1017 - 0,4
Di, 17.09. 2:00 1018 - 0,3
Mo, 16.09. 20:00 1018 + 0,1
Mo, 16.09. 14:00 1019 - 1,3
Mo, 16.09. 8:00 1020 + 0,2
Mo, 16.09. 2:00 1019 + 0,1
So, 15.09. 20:00 1019 - 0,5
Ortszeit Luftdruck NN (hPa) Tendenz (hPa in 3 Std.)
Di, 17.09. 16:20 1013 keine Meldung
Di, 17.09. 16:00 1014 - 2,0
Di, 17.09. 15:50 1014 keine Meldung
Di, 17.09. 15:40 1014 keine Meldung
Di, 17.09. 15:30 1014 - 1,7
Di, 17.09. 15:20 1014 keine Meldung
Di, 17.09. 15:00 1015 - 1,5
Di, 17.09. 14:30 1015 - 1,6
Di, 17.09. 14:00 1016 - 1,3
Di, 17.09. 13:30 1016 - 1,1
Di, 17.09. 13:00 1016 - 1,0
Ortszeit Schneehöhe (cm)
Di, 17.09. 14:00 0
Di, 17.09. 8:00 0
Di, 17.09. 2:00 0
Mo, 16.09. 20:00 0
Mo, 16.09. 14:00 0
Mo, 16.09. 8:00 0
Mo, 16.09. 2:00 0
So, 15.09. 20:00 0
Ortszeit Schneehöhe (cm)
Di, 17.09. 16:20 -
Di, 17.09. 16:00 -
Di, 17.09. 15:50 -
Di, 17.09. 15:40 -
Di, 17.09. 15:30 -
Di, 17.09. 15:20 -
Di, 17.09. 15:00 -
Di, 17.09. 14:30 -
Di, 17.09. 14:00 0
Di, 17.09. 13:30 -
Di, 17.09. 13:00 -
Link zu dieser Seite / Seite empfehlen

Das Wetter in ...